createdAt,value
2022-12-15T00:02:30.797Z,-0.9
2022-12-15T00:16:30.743Z,-1.2
2022-12-15T00:30:30.738Z,-1.0
2022-12-15T00:44:30.815Z,-1.3
2022-12-15T00:58:30.781Z,-1.3
2022-12-15T01:12:30.778Z,-0.9
2022-12-15T01:26:30.792Z,-1.2
2022-12-15T01:40:30.831Z,-0.9
2022-12-15T01:54:30.827Z,-0.9
2022-12-15T02:08:30.842Z,-1.3
2022-12-15T02:22:30.837Z,-1.6
2022-12-15T02:36:30.881Z,-1.4
2022-12-15T02:50:30.900Z,-1.2
2022-12-15T03:04:30.890Z,-1.3
2022-12-15T03:18:30.881Z,-0.6
2022-12-15T03:32:30.908Z,-0.9
2022-12-15T03:46:30.953Z,-1.1
2022-12-15T04:00:30.945Z,-0.8
2022-12-15T04:14:30.965Z,0.2
2022-12-15T04:28:30.988Z,-1.0
2022-12-15T04:42:30.964Z,-1.7
2022-12-15T04:56:30.969Z,-2.1
2022-12-15T05:10:31.003Z,-2.1
2022-12-15T05:25:31.018Z,-1.9
2022-12-15T05:39:31.110Z,-2.0
2022-12-15T05:53:31.525Z,-1.0
2022-12-15T06:07:31.111Z,-1.2
2022-12-15T06:21:31.139Z,-1.5
2022-12-15T06:35:31.128Z,-1.3
2022-12-15T06:50:31.174Z,-0.9
2022-12-15T07:05:31.159Z,-1.1
2022-12-15T07:20:31.221Z,-0.9
2022-12-15T07:36:31.193Z,-0.4
2022-12-15T07:51:31.242Z,0.1
2022-12-15T08:06:31.272Z,0.5
2022-12-15T08:21:31.324Z,1.1
2022-12-15T08:36:31.251Z,1.2
2022-12-15T08:51:31.277Z,1.6
2022-12-15T09:06:31.314Z,2.0
2022-12-15T09:21:31.310Z,3.6
2022-12-15T09:36:31.301Z,4.6
2022-12-15T09:51:31.300Z,5.0
2022-12-15T10:06:33.043Z,5.3
2022-12-15T10:21:31.471Z,5.2
2022-12-15T10:36:31.470Z,5.5
2022-12-15T10:51:31.513Z,5.9
2022-12-15T11:06:31.498Z,5.5
2022-12-15T11:21:31.524Z,5.7
2022-12-15T11:37:36.123Z,6.0
2022-12-15T11:52:31.865Z,6.6
2022-12-15T12:07:34.599Z,6.4
2022-12-15T12:22:31.869Z,6.5
2022-12-15T12:37:31.877Z,6.6
2022-12-15T12:52:31.920Z,6.1
2022-12-15T13:07:31.928Z,5.7
2022-12-15T13:22:31.944Z,5.8
2022-12-15T13:37:31.932Z,5.8
2022-12-15T13:50:06.405Z,5.7
2022-12-15T14:05:06.340Z,5.4
2022-12-15T14:20:06.899Z,5.4
2022-12-15T14:35:07.539Z,4.9
2022-12-15T14:51:07.506Z,4.4
2022-12-15T15:06:07.356Z,4.0
2022-12-15T15:21:07.605Z,3.9
2022-12-15T15:36:07.574Z,3.8
2022-12-15T15:51:07.678Z,3.7
2022-12-15T16:05:08.058Z,3.6
2022-12-15T16:19:07.695Z,3.6
2022-12-15T16:33:07.885Z,3.6
2022-12-15T16:47:08.235Z,3.4
2022-12-15T17:01:08.371Z,3.6
2022-12-15T17:15:08.919Z,3.8
2022-12-15T17:29:09.010Z,4.0
2022-12-15T17:43:09.067Z,3.9
2022-12-15T17:57:09.094Z,3.9
2022-12-15T18:11:09.099Z,4.1
2022-12-15T18:25:08.767Z,4.1
2022-12-15T18:39:09.115Z,4.3
2022-12-15T18:53:08.805Z,4.5
2022-12-15T19:07:09.158Z,4.6
2022-12-15T19:21:09.212Z,4.6
2022-12-15T19:35:08.937Z,4.5
2022-12-15T19:49:09.327Z,4.6
2022-12-15T20:03:09.051Z,4.6
2022-12-15T20:17:08.965Z,4.8
2022-12-15T20:31:08.923Z,5.0
2022-12-15T20:45:08.945Z,5.3
2022-12-15T20:59:09.420Z,5.3
2022-12-15T21:13:09.074Z,5.1
2022-12-15T21:27:09.429Z,5.0
2022-12-15T21:41:09.139Z,5.2
2022-12-15T21:55:09.569Z,5.3
2022-12-15T22:09:10.389Z,5.5
2022-12-15T22:23:10.559Z,5.5
2022-12-15T22:37:10.380Z,5.6
2022-12-15T22:51:10.353Z,5.5
2022-12-15T23:05:10.369Z,5.7
2022-12-15T23:19:10.487Z,5.8
2022-12-15T23:33:10.353Z,6.0
2022-12-15T23:48:10.369Z,6.0
